createdAt,value
2018-12-26T00:00:13.076Z,927.79
2018-12-26T00:00:26.084Z,927.81
2018-12-26T00:00:39.036Z,927.77
2018-12-26T00:00:52.036Z,927.76
2018-12-26T00:01:05.066Z,927.83
2018-12-26T00:01:18.332Z,927.82
2018-12-26T00:01:31.709Z,927.81
2018-12-26T00:01:45.279Z,927.81
2018-12-26T00:01:58.351Z,927.82
2018-12-26T00:02:11.324Z,927.84
2018-12-26T00:02:24.336Z,927.79
2018-12-26T00:02:36.854Z,927.83
2018-12-26T00:02:51.029Z,927.82
2018-12-26T00:03:03.978Z,927.85
2018-12-26T00:03:16.937Z,927.84
2018-12-26T00:03:29.874Z,927.86
2018-12-26T00:03:42.892Z,927.84
2018-12-26T00:03:55.944Z,927.82
2018-12-26T00:04:08.860Z,927.83
2018-12-26T00:04:21.945Z,927.83
2018-12-26T00:04:34.974Z,927.84
2018-12-26T00:04:47.941Z,927.82
2018-12-26T00:05:00.951Z,927.8
2018-12-26T00:05:13.955Z,927.81
2018-12-26T00:05:27.388Z,927.82
2018-12-26T00:05:40.629Z,927.78
2018-12-26T00:05:53.999Z,927.82
2018-12-26T00:06:07.017Z,927.8
2018-12-26T00:06:19.985Z,927.85
2018-12-26T00:06:33.011Z,927.85
2018-12-26T00:06:46.046Z,927.83
2018-12-26T00:06:59.077Z,927.84
2018-12-26T00:07:11.599Z,927.82
2018-12-26T00:07:24.630Z,927.8
2018-12-26T00:07:37.655Z,927.81
2018-12-26T00:07:50.629Z,927.81
2018-12-26T00:08:03.685Z,927.86
2018-12-26T00:08:17.791Z,927.87
2018-12-26T00:08:30.337Z,927.86
2018-12-26T00:08:43.417Z,927.86
2018-12-26T00:08:56.429Z,927.86
2018-12-26T00:09:09.409Z,927.89
2018-12-26T00:09:21.921Z,927.86
2018-12-26T00:09:36.090Z,927.84
2018-12-26T00:09:49.108Z,927.84
2018-12-26T00:10:02.021Z,927.89
2018-12-26T00:10:14.973Z,927.87
2018-12-26T00:10:27.955Z,927.87
2018-12-26T00:10:40.615Z,927.88
2018-12-26T00:10:53.594Z,927.91
2018-12-26T00:11:06.759Z,927.84
2018-12-26T00:11:19.709Z,927.9
2018-12-26T00:11:32.715Z,927.87
2018-12-26T00:11:45.739Z,927.9
2018-12-26T00:11:58.746Z,927.86
2018-12-26T00:12:11.712Z,927.86
2018-12-26T00:12:24.667Z,927.89
2018-12-26T00:12:37.709Z,927.88
2018-12-26T00:12:50.770Z,927.88
2018-12-26T00:13:03.698Z,927.92
2018-12-26T00:13:16.714Z,927.92
2018-12-26T00:13:29.684Z,927.93
2018-12-26T00:13:42.657Z,927.89
2018-12-26T00:13:55.662Z,927.91
2018-12-26T00:14:08.777Z,927.86
2018-12-26T00:14:21.707Z,927.83
2018-12-26T00:14:34.693Z,927.9
2018-12-26T00:14:47.661Z,927.84
2018-12-26T00:15:00.692Z,927.93
2018-12-26T00:15:13.693Z,927.89
2018-12-26T00:15:26.749Z,927.86
2018-12-26T00:15:39.766Z,927.88
2018-12-26T00:15:52.778Z,927.89
2018-12-26T00:16:05.787Z,927.91
2018-12-26T00:16:18.746Z,927.93
2018-12-26T00:16:31.794Z,927.88
2018-12-26T00:16:44.885Z,927.88
2018-12-26T00:16:57.834Z,927.85
2018-12-26T00:17:10.868Z,927.87
2018-12-26T00:17:23.906Z,927.87
2018-12-26T00:17:36.926Z,927.86
2018-12-26T00:17:49.948Z,927.88
2018-12-26T00:18:02.896Z,927.86
2018-12-26T00:18:15.865Z,927.89
2018-12-26T00:18:29.378Z,927.9
2018-12-26T00:18:42.665Z,927.88
2018-12-26T00:18:55.869Z,927.89
2018-12-26T00:19:08.846Z,927.92
2018-12-26T00:19:21.367Z,927.89
2018-12-26T00:19:34.616Z,927.93
2018-12-26T00:19:47.454Z,927.91
2018-12-26T00:20:00.373Z,927.94
2018-12-26T00:20:13.645Z,927.89
2018-12-26T00:20:28.430Z,927.94
2018-12-26T00:20:41.437Z,927.89
2018-12-26T00:20:54.433Z,927.92
2018-12-26T00:21:07.415Z,927.89
2018-12-26T00:21:20.327Z,927.93
2018-12-26T00:21:33.328Z,927.96
2018-12-26T00:21:46.365Z,927.95
2018-12-26T00:21:59.337Z,927.93
2018-12-26T00:22:12.319Z,927.92
2018-12-26T00:22:25.284Z,927.91
2018-12-26T00:22:38.277Z,927.95
2018-12-26T00:22:51.228Z,927.9
2018-12-26T00:23:04.231Z,927.91
2018-12-26T00:23:17.246Z,927.9
2018-12-26T00:23:30.311Z,927.93
2018-12-26T00:23:43.305Z,927.91
2018-12-26T00:23:56.788Z,927.96
2018-12-26T00:24:09.875Z,927.97
2018-12-26T00:24:23.039Z,927.93
2018-12-26T00:24:36.716Z,927.96
2018-12-26T00:24:49.777Z,927.95
2018-12-26T00:25:02.850Z,927.93
2018-12-26T00:25:16.372Z,927.95
2018-12-26T00:25:29.454Z,927.95
2018-12-26T00:25:42.402Z,927.95
2018-12-26T00:26:02.795Z,927.99
2018-12-26T00:26:15.752Z,927.96
2018-12-26T00:26:28.726Z,927.94
2018-12-26T00:26:41.770Z,927.94
2018-12-26T00:26:54.765Z,927.94
2018-12-26T00:27:07.761Z,927.99
2018-12-26T00:27:20.771Z,927.98
2018-12-26T00:27:33.830Z,927.95
2018-12-26T00:27:46.799Z,927.99
2018-12-26T00:27:59.772Z,928.01
2018-12-26T00:28:12.749Z,928.02
2018-12-26T00:28:25.730Z,928.05
2018-12-26T00:28:38.768Z,928.02
2018-12-26T00:28:51.701Z,928.04
2018-12-26T00:29:04.646Z,928.06
2018-12-26T00:29:17.639Z,928.08
2018-12-26T00:29:30.666Z,928.06
2018-12-26T00:29:43.647Z,928.06
2018-12-26T00:29:56.326Z,928.05
2018-12-26T00:30:09.360Z,928.08
2018-12-26T00:30:22.356Z,928.07
2018-12-26T00:30:35.332Z,928.1
2018-12-26T00:30:48.289Z,928.07
2018-12-26T00:31:01.269Z,928.07
2018-12-26T00:31:14.215Z,928.1
2018-12-26T00:31:27.116Z,928.07
2018-12-26T00:31:40.096Z,928.03
2018-12-26T00:31:53.058Z,928.09
2018-12-26T00:32:06.040Z,928.05
2018-12-26T00:32:18.957Z,928.12
2018-12-26T00:32:31.909Z,928.05
2018-12-26T00:32:44.887Z,928.06
2018-12-26T00:32:57.893Z,928.07
2018-12-26T00:33:10.939Z,928.06
2018-12-26T00:33:23.927Z,928.09
2018-12-26T00:33:36.908Z,928.09
2018-12-26T00:33:49.886Z,928.06
2018-12-26T00:34:02.870Z,928.09
2018-12-26T00:34:15.409Z,928.2
2018-12-26T00:34:28.344Z,928.12
2018-12-26T00:34:41.306Z,928.14
2018-12-26T00:34:54.318Z,928.11
2018-12-26T00:35:07.258Z,928.11
2018-12-26T00:35:20.193Z,928.11
2018-12-26T00:35:32.766Z,928.11
2018-12-26T00:35:45.799Z,928.11
2018-12-26T00:35:58.772Z,928.12
2018-12-26T00:36:11.730Z,928.11
2018-12-26T00:36:24.662Z,928.1
2018-12-26T00:36:37.668Z,928.12
2018-12-26T00:36:50.675Z,928.15
2018-12-26T00:37:03.753Z,928.15
2018-12-26T00:37:16.706Z,928.16
2018-12-26T00:37:29.721Z,928.12
2018-12-26T00:37:42.709Z,928.15
2018-12-26T00:37:55.676Z,928.11
2018-12-26T00:38:08.691Z,928.14
2018-12-26T00:38:21.663Z,928.18
2018-12-26T00:38:34.660Z,928.09
2018-12-26T00:38:47.228Z,928.16
2018-12-26T00:39:00.189Z,928.11
2018-12-26T00:39:13.162Z,928.16
2018-12-26T00:39:26.133Z,928.19
2018-12-26T00:39:39.135Z,928.17
2018-12-26T00:39:55.113Z,928.17
2018-12-26T00:40:08.153Z,928.23
2018-12-26T00:40:21.156Z,928.14
2018-12-26T00:40:34.143Z,928.21
2018-12-26T00:40:47.142Z,928.19
2018-12-26T00:41:00.071Z,928.16
2018-12-26T00:41:13.076Z,928.19
2018-12-26T00:41:26.097Z,928.16
2018-12-26T00:41:39.137Z,928.19
2018-12-26T00:41:52.149Z,928.15
2018-12-26T00:42:04.670Z,928.16
2018-12-26T00:42:17.687Z,928.2
2018-12-26T00:42:30.620Z,928.2
2018-12-26T00:42:43.596Z,928.2
2018-12-26T00:42:56.571Z,928.24
2018-12-26T00:43:09.599Z,928.2
2018-12-26T00:43:22.616Z,928.2
2018-12-26T00:43:35.580Z,928.2
2018-12-26T00:43:48.503Z,928.24
2018-12-26T00:44:01.514Z,928.23
2018-12-26T00:44:14.431Z,928.21
2018-12-26T00:44:27.436Z,928.24
2018-12-26T00:44:40.423Z,928.21
2018-12-26T00:44:53.431Z,928.24
2018-12-26T00:45:06.399Z,928.25
2018-12-26T00:45:19.367Z,928.22
2018-12-26T00:45:32.466Z,928.24
2018-12-26T00:45:45.455Z,928.17
2018-12-26T00:45:58.554Z,928.24
2018-12-26T00:46:11.084Z,928.21
2018-12-26T00:46:24.069Z,928.24
2018-12-26T00:46:37.062Z,928.23
2018-12-26T00:46:50.097Z,928.25
2018-12-26T00:47:03.209Z,928.25
2018-12-26T00:47:16.173Z,928.25
2018-12-26T00:47:29.190Z,928.24
2018-12-26T00:47:42.215Z,928.27
2018-12-26T00:47:55.208Z,928.25
2018-12-26T00:48:08.220Z,928.21
2018-12-26T00:48:21.238Z,928.23
2018-12-26T00:48:34.167Z,928.25
2018-12-26T00:48:47.211Z,928.27
2018-12-26T00:49:00.197Z,928.23
2018-12-26T00:49:13.213Z,928.24
2018-12-26T00:49:26.251Z,928.22
2018-12-26T00:49:39.243Z,928.3
2018-12-26T00:49:52.259Z,928.26
2018-12-26T00:50:05.230Z,928.28
2018-12-26T00:50:17.778Z,928.25
2018-12-26T00:50:30.758Z,928.31
2018-12-26T00:50:43.727Z,928.29
2018-12-26T00:50:56.751Z,928.31
2018-12-26T00:51:09.755Z,928.29
2018-12-26T00:51:22.785Z,928.31
2018-12-26T00:51:35.717Z,928.28
2018-12-26T00:51:48.712Z,928.31
2018-12-26T00:52:01.770Z,928.32
2018-12-26T00:52:14.315Z,928.29
2018-12-26T00:52:27.296Z,928.32
2018-12-26T00:52:40.315Z,928.31
2018-12-26T00:52:53.326Z,928.32
2018-12-26T00:53:06.360Z,928.31
2018-12-26T00:53:19.378Z,928.33
2018-12-26T00:53:32.375Z,928.38
2018-12-26T00:53:44.896Z,928.35
2018-12-26T00:53:57.840Z,928.33
2018-12-26T00:54:10.851Z,928.35
2018-12-26T00:54:23.869Z,928.37
2018-12-26T00:54:36.993Z,928.35
2018-12-26T00:54:50.957Z,928.33
2018-12-26T00:55:03.958Z,928.34
2018-12-26T00:55:16.945Z,928.32
2018-12-26T00:55:29.929Z,928.33
2018-12-26T00:55:42.942Z,928.33
2018-12-26T00:55:55.943Z,928.37
2018-12-26T00:56:17.406Z,928.36
2018-12-26T00:56:30.943Z,928.38
2018-12-26T00:56:43.897Z,928.33
2018-12-26T00:56:56.859Z,928.32
2018-12-26T00:57:09.812Z,928.36
2018-12-26T00:57:22.946Z,928.31
2018-12-26T00:57:35.983Z,928.32
2018-12-26T00:57:49.025Z,928.34
2018-12-26T00:58:02.134Z,928.31
2018-12-26T00:58:15.149Z,928.35
2018-12-26T00:58:28.139Z,928.38
2018-12-26T00:58:41.134Z,928.33
2018-12-26T00:58:54.143Z,928.34
2018-12-26T00:59:07.186Z,928.35
2018-12-26T00:59:20.103Z,928.35
2018-12-26T00:59:33.033Z,928.35
2018-12-26T00:59:46.049Z,928.34
2018-12-26T00:59:59.051Z,928.37
2018-12-26T01:00:12.137Z,928.36
2018-12-26T01:00:25.191Z,928.36
2018-12-26T01:00:38.178Z,928.41
2018-12-26T01:00:51.156Z,928.42
2018-12-26T01:01:04.106Z,928.39
2018-12-26T01:01:17.110Z,928.42
2018-12-26T01:01:30.151Z,928.4
2018-12-26T01:01:43.174Z,928.41
2018-12-26T01:01:56.169Z,928.41
2018-12-26T01:02:09.186Z,928.43
2018-12-26T01:02:22.191Z,928.42
2018-12-26T01:02:35.201Z,928.42
2018-12-26T01:02:48.235Z,928.46
2018-12-26T01:03:00.733Z,928.45
2018-12-26T01:03:13.640Z,928.44
2018-12-26T01:03:26.635Z,928.45
2018-12-26T01:03:39.658Z,928.45
2018-12-26T01:03:52.947Z,928.45
2018-12-26T01:04:06.074Z,928.45
2018-12-26T01:04:19.053Z,928.47
2018-12-26T01:04:32.028Z,928.47
2018-12-26T01:04:45.029Z,928.47
2018-12-26T01:04:57.533Z,928.41
2018-12-26T01:05:10.552Z,928.46
2018-12-26T01:05:23.539Z,928.44
2018-12-26T01:05:36.695Z,928.48
2018-12-26T01:05:49.896Z,928.45
2018-12-26T01:06:02.855Z,928.48
2018-12-26T01:06:15.766Z,928.5
2018-12-26T01:06:28.869Z,928.46
2018-12-26T01:06:41.906Z,928.55
2018-12-26T01:06:54.958Z,928.53
2018-12-26T01:07:07.898Z,928.5
2018-12-26T01:07:23.946Z,928.57
2018-12-26T01:07:37.031Z,928.5
2018-12-26T01:07:50.033Z,928.47
2018-12-26T01:08:03.078Z,928.53
2018-12-26T01:08:16.190Z,928.54
2018-12-26T01:08:29.207Z,928.57
2018-12-26T01:08:42.286Z,928.58
2018-12-26T01:08:55.379Z,928.55
2018-12-26T01:09:08.460Z,928.54
2018-12-26T01:09:21.475Z,928.5
2018-12-26T01:09:34.467Z,928.56
2018-12-26T01:09:47.521Z,928.58
2018-12-26T01:10:01.365Z,928.55
2018-12-26T01:10:14.441Z,928.54
2018-12-26T01:10:27.482Z,928.52
2018-12-26T01:10:40.538Z,928.55
2018-12-26T01:10:53.566Z,928.57
2018-12-26T01:11:06.571Z,928.58
2018-12-26T01:11:19.669Z,928.55
2018-12-26T01:11:32.771Z,928.58
2018-12-26T01:11:45.788Z,928.53
2018-12-26T01:11:58.808Z,928.56
2018-12-26T01:12:11.855Z,928.55
2018-12-26T01:12:24.864Z,928.58
2018-12-26T01:12:37.875Z,928.57
2018-12-26T01:12:50.892Z,928.59
2018-12-26T01:13:03.854Z,928.57
2018-12-26T01:13:16.871Z,928.58
2018-12-26T01:13:29.890Z,928.54
2018-12-26T01:13:42.912Z,928.55
2018-12-26T01:13:55.911Z,928.55
2018-12-26T01:14:08.916Z,928.59
2018-12-26T01:14:21.901Z,928.56
2018-12-26T01:14:34.979Z,928.56
2018-12-26T01:14:47.989Z,928.52
2018-12-26T01:15:01.027Z,928.57
2018-12-26T01:15:14.153Z,928.53
2018-12-26T01:15:27.269Z,928.55
2018-12-26T01:15:40.328Z,928.51
2018-12-26T01:15:53.416Z,928.51
2018-12-26T01:16:06.462Z,928.55
2018-12-26T01:16:19.445Z,928.54
2018-12-26T01:16:32.540Z,928.54
2018-12-26T01:16:45.585Z,928.52
2018-12-26T01:16:58.548Z,928.55
2018-12-26T01:17:11.599Z,928.6
2018-12-26T01:17:24.636Z,928.57
2018-12-26T01:17:37.656Z,928.61
2018-12-26T01:17:50.705Z,928.57
2018-12-26T01:18:05.266Z,928.59
2018-12-26T01:18:18.313Z,928.58
2018-12-26T01:18:31.333Z,928.58
2018-12-26T01:18:44.277Z,928.59
2018-12-26T01:18:57.320Z,928.62
2018-12-26T01:19:10.324Z,928.59
2018-12-26T01:19:23.361Z,928.58
2018-12-26T01:19:36.000Z,928.59
2018-12-26T01:19:49.052Z,928.58
2018-12-26T01:20:02.119Z,928.59
2018-12-26T01:20:15.138Z,928.63
2018-12-26T01:20:28.151Z,928.58
2018-12-26T01:20:41.164Z,928.58
2018-12-26T01:20:54.244Z,928.62
2018-12-26T01:21:07.340Z,928.58
2018-12-26T01:21:20.382Z,928.6
2018-12-26T01:21:33.454Z,928.59
2018-12-26T01:21:46.565Z,928.59
2018-12-26T01:21:59.543Z,928.61
2018-12-26T01:22:12.593Z,928.63
2018-12-26T01:22:25.623Z,928.6
2018-12-26T01:22:38.213Z,928.63
2018-12-26T01:22:51.294Z,928.64
2018-12-26T01:23:04.303Z,928.61
2018-12-26T01:23:17.402Z,928.65
2018-12-26T01:23:30.428Z,928.61
2018-12-26T01:23:43.460Z,928.64
2018-12-26T01:23:56.502Z,928.66
2018-12-26T01:24:09.554Z,928.68
2018-12-26T01:24:22.626Z,928.68
2018-12-26T01:24:35.623Z,928.67
2018-12-26T01:24:48.639Z,928.68
2018-12-26T01:25:02.940Z,928.68
2018-12-26T01:25:15.942Z,928.67
2018-12-26T01:25:28.937Z,928.67
2018-12-26T01:25:42.000Z,928.67
2018-12-26T01:25:55.134Z,928.69
2018-12-26T01:26:08.173Z,928.7
2018-12-26T01:26:29.205Z,928.69
2018-12-26T01:26:42.209Z,928.69
2018-12-26T01:26:55.291Z,928.73
2018-12-26T01:27:08.369Z,928.7
2018-12-26T01:27:21.432Z,928.65
2018-12-26T01:27:34.030Z,928.67
2018-12-26T01:27:47.038Z,928.69
2018-12-26T01:28:00.011Z,928.68
2018-12-26T01:28:13.101Z,928.67
2018-12-26T01:28:26.078Z,928.67
2018-12-26T01:28:39.096Z,928.68
2018-12-26T01:28:52.168Z,928.74
2018-12-26T01:29:05.255Z,928.73
2018-12-26T01:29:18.350Z,928.73
2018-12-26T01:29:31.435Z,928.66
2018-12-26T01:29:44.558Z,928.72
2018-12-26T01:29:57.612Z,928.73
2018-12-26T01:30:10.654Z,928.7
2018-12-26T01:30:23.681Z,928.68
2018-12-26T01:30:36.727Z,928.7
2018-12-26T01:30:49.829Z,928.69
2018-12-26T01:31:02.943Z,928.68
2018-12-26T01:31:16.045Z,928.71
2018-12-26T01:31:29.055Z,928.66
2018-12-26T01:31:42.101Z,928.71
2018-12-26T01:31:55.136Z,928.63
2018-12-26T01:32:08.227Z,928.68
2018-12-26T01:32:21.251Z,928.7
2018-12-26T01:32:34.303Z,928.65
2018-12-26T01:32:47.317Z,928.68
2018-12-26T01:33:00.418Z,928.66
2018-12-26T01:33:13.509Z,928.63
2018-12-26T01:33:26.487Z,928.64
2018-12-26T01:33:39.514Z,928.63
2018-12-26T01:33:52.557Z,928.61
2018-12-26T01:34:05.603Z,928.63
2018-12-26T01:34:18.639Z,928.68
2018-12-26T01:34:31.637Z,928.62
2018-12-26T01:34:44.719Z,928.62
2018-12-26T01:34:57.807Z,928.65
2018-12-26T01:35:10.814Z,928.63
2018-12-26T01:35:23.862Z,928.61
2018-12-26T01:35:36.890Z,928.58
2018-12-26T01:35:49.954Z,928.58
2018-12-26T01:36:03.411Z,928.62
2018-12-26T01:36:16.444Z,928.59
2018-12-26T01:36:29.440Z,928.57
2018-12-26T01:36:42.472Z,928.59
2018-12-26T01:36:55.635Z,928.58
2018-12-26T01:37:08.717Z,928.56
2018-12-26T01:37:21.896Z,928.51
2018-12-26T01:37:34.940Z,928.52
2018-12-26T01:37:47.974Z,928.53
2018-12-26T01:38:01.136Z,928.53
2018-12-26T01:38:14.201Z,928.55
2018-12-26T01:38:27.251Z,928.52
2018-12-26T01:38:40.291Z,928.52
2018-12-26T01:38:53.342Z,928.54
2018-12-26T01:39:06.338Z,928.54
2018-12-26T01:39:19.376Z,928.54
2018-12-26T01:39:32.437Z,928.52
2018-12-26T01:39:45.506Z,928.53
2018-12-26T01:39:58.521Z,928.46
2018-12-26T01:40:11.885Z,928.48
2018-12-26T01:40:24.932Z,928.51
2018-12-26T01:40:37.959Z,928.46
2018-12-26T01:40:50.566Z,928.47
2018-12-26T01:41:03.643Z,928.48
2018-12-26T01:41:16.675Z,928.45
2018-12-26T01:41:29.678Z,928.48
2018-12-26T01:41:42.769Z,928.46
2018-12-26T01:41:55.782Z,928.44
2018-12-26T01:42:08.877Z,928.46
2018-12-26T01:42:21.891Z,928.46
2018-12-26T01:42:35.025Z,928.49
2018-12-26T01:42:48.031Z,928.48
2018-12-26T01:43:01.092Z,928.46
2018-12-26T01:43:14.185Z,928.47
2018-12-26T01:43:27.228Z,928.43
2018-12-26T01:43:40.289Z,928.44
2018-12-26T01:43:53.362Z,928.43
2018-12-26T01:44:06.495Z,928.44
2018-12-26T01:44:19.523Z,928.44
2018-12-26T01:44:32.601Z,928.44
2018-12-26T01:44:45.624Z,928.45
2018-12-26T01:44:58.650Z,928.42
2018-12-26T01:45:11.679Z,928.45
2018-12-26T01:45:24.745Z,928.43
2018-12-26T01:45:37.332Z,928.45
2018-12-26T01:45:50.357Z,928.44
2018-12-26T01:46:03.404Z,928.47
2018-12-26T01:46:16.468Z,928.41
2018-12-26T01:46:29.606Z,928.42
2018-12-26T01:46:42.187Z,928.43
2018-12-26T01:46:55.232Z,928.51
2018-12-26T01:47:08.264Z,928.46
2018-12-26T01:47:21.305Z,928.45
2018-12-26T01:47:34.376Z,928.44
2018-12-26T01:47:47.386Z,928.46
2018-12-26T01:48:00.418Z,928.48
2018-12-26T01:48:13.565Z,928.48
2018-12-26T01:48:26.662Z,928.41
2018-12-26T01:48:39.696Z,928.44
2018-12-26T01:48:52.725Z,928.42
2018-12-26T01:49:05.747Z,928.43
2018-12-26T01:49:18.764Z,928.44
2018-12-26T01:49:31.846Z,928.42
2018-12-26T01:49:44.848Z,928.44
2018-12-26T01:49:57.938Z,928.4
2018-12-26T01:50:11.072Z,928.4
2018-12-26T01:50:24.101Z,928.38
2018-12-26T01:50:37.198Z,928.39
2018-12-26T01:50:50.244Z,928.41
2018-12-26T01:51:03.387Z,928.37
2018-12-26T01:51:16.430Z,928.36
2018-12-26T01:51:29.496Z,928.39
2018-12-26T01:51:42.568Z,928.35
2018-12-26T01:51:55.678Z,928.38
2018-12-26T01:52:08.262Z,928.39
2018-12-26T01:52:21.293Z,928.38
2018-12-26T01:52:34.341Z,928.4
2018-12-26T01:52:47.466Z,928.4
2018-12-26T01:53:00.563Z,928.36
2018-12-26T01:53:13.576Z,928.35
2018-12-26T01:53:26.613Z,928.36
2018-12-26T01:53:39.693Z,928.34
2018-12-26T01:53:52.744Z,928.38
2018-12-26T01:54:05.758Z,928.36
2018-12-26T01:54:18.815Z,928.36
2018-12-26T01:54:31.864Z,928.32
2018-12-26T01:54:44.915Z,928.34
2018-12-26T01:54:57.979Z,928.3
2018-12-26T01:55:11.014Z,928.34
2018-12-26T01:55:25.075Z,928.35
2018-12-26T01:55:38.147Z,928.3
2018-12-26T01:55:51.138Z,928.35
2018-12-26T01:56:04.234Z,928.29
2018-12-26T01:56:17.281Z,928.32
2018-12-26T01:56:37.979Z,928.39
2018-12-26T01:56:51.080Z,928.35
2018-12-26T01:57:04.111Z,928.38
2018-12-26T01:57:17.091Z,928.4
2018-12-26T01:57:30.246Z,928.39
2018-12-26T01:57:43.281Z,928.35
2018-12-26T01:57:55.875Z,928.36
2018-12-26T01:58:08.891Z,928.35
2018-12-26T01:58:21.954Z,928.38
2018-12-26T01:58:34.496Z,928.33
2018-12-26T01:58:47.582Z,928.37
2018-12-26T01:59:00.661Z,928.4
2018-12-26T01:59:14.178Z,928.35
2018-12-26T01:59:27.174Z,928.35
2018-12-26T01:59:40.326Z,928.36
2018-12-26T01:59:53.303Z,928.35
2018-12-26T02:00:06.467Z,928.38
2018-12-26T02:00:19.546Z,928.35
2018-12-26T02:00:32.562Z,928.33
2018-12-26T02:00:45.620Z,928.31
2018-12-26T02:00:58.802Z,928.38
2018-12-26T02:01:11.915Z,928.35
2018-12-26T02:01:24.965Z,928.31
2018-12-26T02:01:38.117Z,928.33
2018-12-26T02:01:51.102Z,928.29
2018-12-26T02:02:04.275Z,928.33
2018-12-26T02:02:17.270Z,928.33
2018-12-26T02:02:30.334Z,928.33
2018-12-26T02:02:43.392Z,928.31
2018-12-26T02:02:56.393Z,928.33
2018-12-26T02:03:09.381Z,928.29
2018-12-26T02:03:22.408Z,928.28
2018-12-26T02:03:34.989Z,928.27
2018-12-26T02:03:47.949Z,928.25
2018-12-26T02:04:00.969Z,928.25
2018-12-26T02:04:13.616Z,928.27
2018-12-26T02:04:26.628Z,928.25
2018-12-26T02:04:39.569Z,928.26
2018-12-26T02:04:52.538Z,928.26
2018-12-26T02:05:05.547Z,928.23
2018-12-26T02:05:18.629Z,928.27
2018-12-26T02:05:31.650Z,928.25
2018-12-26T02:05:44.630Z,928.25
2018-12-26T02:05:57.659Z,928.27
2018-12-26T02:06:10.666Z,928.26
2018-12-26T02:06:23.713Z,928.3
2018-12-26T02:06:36.685Z,928.29
2018-12-26T02:06:49.714Z,928.25
2018-12-26T02:07:02.664Z,928.27
2018-12-26T02:07:15.198Z,928.25
2018-12-26T02:07:28.175Z,928.25
2018-12-26T02:07:41.203Z,928.24
2018-12-26T02:07:54.222Z,928.23
2018-12-26T02:08:07.308Z,928.25
2018-12-26T02:08:20.382Z,928.28
2018-12-26T02:08:33.313Z,928.25
2018-12-26T02:08:46.391Z,928.26
2018-12-26T02:08:59.429Z,928.27
2018-12-26T02:09:12.439Z,928.29
2018-12-26T02:09:24.991Z,928.22
2018-12-26T02:09:38.042Z,928.2
2018-12-26T02:09:51.088Z,928.22
2018-12-26T02:10:04.189Z,928.21
2018-12-26T02:10:17.160Z,928.25
2018-12-26T02:10:30.922Z,928.26
2018-12-26T02:10:44.010Z,928.26
2018-12-26T02:10:57.099Z,928.22
2018-12-26T02:11:10.156Z,928.27
2018-12-26T02:11:23.180Z,928.24
2018-12-26T02:11:36.232Z,928.27
2018-12-26T02:11:49.247Z,928.24
2018-12-26T02:12:02.331Z,928.2
2018-12-26T02:12:14.925Z,928.23
2018-12-26T02:12:28.009Z,928.23
2018-12-26T02:12:41.011Z,928.27
2018-12-26T02:12:53.591Z,928.22
2018-12-26T02:13:06.642Z,928.21
2018-12-26T02:13:19.654Z,928.29
2018-12-26T02:13:32.765Z,928.2
2018-12-26T02:13:45.755Z,928.18
2018-12-26T02:13:58.782Z,928.18
2018-12-26T02:14:11.817Z,928.19
2018-12-26T02:14:24.815Z,928.2
2018-12-26T02:14:37.799Z,928.21
2018-12-26T02:14:50.818Z,928.22
2018-12-26T02:15:03.787Z,928.16
2018-12-26T02:15:16.776Z,928.21
2018-12-26T02:15:29.839Z,928.15
2018-12-26T02:15:42.865Z,928.15
2018-12-26T02:15:55.891Z,928.16
2018-12-26T02:16:09.013Z,928.15
2018-12-26T02:16:22.006Z,928.14
2018-12-26T02:16:35.152Z,928.13
2018-12-26T02:16:48.220Z,928.09
2018-12-26T02:17:01.260Z,928.1
2018-12-26T02:17:14.302Z,928.1
2018-12-26T02:17:27.293Z,928.1
2018-12-26T02:17:40.384Z,928.12
2018-12-26T02:17:53.408Z,928.08
2018-12-26T02:18:06.472Z,928.06
2018-12-26T02:18:19.498Z,928.11
2018-12-26T02:18:32.525Z,928.1
2018-12-26T02:18:45.573Z,928.14
2018-12-26T02:18:58.551Z,928.11
2018-12-26T02:19:11.571Z,928.09
2018-12-26T02:19:24.570Z,928.05
2018-12-26T02:19:37.584Z,928.08
2018-12-26T02:19:50.642Z,928.06
2018-12-26T02:20:03.686Z,928.13
2018-12-26T02:20:16.720Z,928.09
2018-12-26T02:20:29.769Z,928.05
2018-12-26T02:20:42.782Z,928.07
2018-12-26T02:20:55.760Z,928.09
2018-12-26T02:21:08.778Z,928.05
2018-12-26T02:21:21.780Z,928.1
2018-12-26T02:21:34.800Z,928.08
2018-12-26T02:21:47.792Z,928.05
2018-12-26T02:22:00.846Z,928.09
2018-12-26T02:22:13.845Z,928.09
2018-12-26T02:22:26.871Z,928.05
2018-12-26T02:22:39.854Z,928.09
2018-12-26T02:22:52.932Z,928.05
2018-12-26T02:23:05.947Z,928.06
2018-12-26T02:23:18.973Z,928.09
2018-12-26T02:23:32.049Z,928.06
2018-12-26T02:23:45.084Z,928.04
2018-12-26T02:23:58.062Z,928.08
2018-12-26T02:24:11.091Z,928.03
2018-12-26T02:24:24.101Z,928.04
2018-12-26T02:24:37.131Z,928.04
2018-12-26T02:24:50.197Z,928.06
2018-12-26T02:25:03.222Z,928.03
2018-12-26T02:25:16.197Z,928.02
2018-12-26T02:25:29.701Z,928.03
2018-12-26T02:25:42.687Z,928.01
2018-12-26T02:25:55.656Z,927.99
2018-12-26T02:26:08.664Z,928
2018-12-26T02:26:21.671Z,927.99
2018-12-26T02:26:40.536Z,927.99
2018-12-26T02:26:53.535Z,928
2018-12-26T02:27:06.486Z,927.98
2018-12-26T02:27:19.598Z,927.96
2018-12-26T02:27:32.505Z,927.99
2018-12-26T02:27:45.546Z,928.02
2018-12-26T02:27:58.550Z,928
2018-12-26T02:28:11.518Z,928
2018-12-26T02:28:24.542Z,927.98
2018-12-26T02:28:37.532Z,927.99
2018-12-26T02:28:50.552Z,927.98
2018-12-26T02:29:03.535Z,927.98
2018-12-26T02:29:16.516Z,927.98
2018-12-26T02:29:29.556Z,927.92
2018-12-26T02:29:42.624Z,927.93
2018-12-26T02:29:55.635Z,927.94
2018-12-26T02:30:08.657Z,927.94
2018-12-26T02:30:21.654Z,927.91
2018-12-26T02:30:34.642Z,927.93
2018-12-26T02:30:47.683Z,927.93
2018-12-26T02:31:00.718Z,927.93
2018-12-26T02:31:13.678Z,927.9
2018-12-26T02:31:26.694Z,927.85
2018-12-26T02:31:39.647Z,927.9
2018-12-26T02:31:52.690Z,927.89
2018-12-26T02:32:05.710Z,927.9
2018-12-26T02:32:18.688Z,927.89
2018-12-26T02:32:34.519Z,927.89
2018-12-26T02:32:47.480Z,927.91
2018-12-26T02:33:00.502Z,927.89
2018-12-26T02:33:13.509Z,927.87
2018-12-26T02:33:26.508Z,927.86
2018-12-26T02:33:39.562Z,927.88
2018-12-26T02:33:52.540Z,927.84
2018-12-26T02:34:05.531Z,927.86
2018-12-26T02:34:18.552Z,927.83
2018-12-26T02:34:31.585Z,927.83
2018-12-26T02:34:44.675Z,927.85
2018-12-26T02:34:57.674Z,927.81
2018-12-26T02:35:10.684Z,927.85
2018-12-26T02:35:23.710Z,927.85
2018-12-26T02:35:36.699Z,927.86
2018-12-26T02:35:49.645Z,927.86
2018-12-26T02:36:02.632Z,927.86
2018-12-26T02:36:15.647Z,927.8
2018-12-26T02:36:28.596Z,927.81
2018-12-26T02:36:41.590Z,927.8
2018-12-26T02:36:54.589Z,927.8
2018-12-26T02:37:07.758Z,927.8
2018-12-26T02:37:20.736Z,927.85
2018-12-26T02:37:35.514Z,927.86
2018-12-26T02:37:48.671Z,927.84
2018-12-26T02:38:01.772Z,927.79
2018-12-26T02:38:14.777Z,927.8
2018-12-26T02:38:27.861Z,927.78
2018-12-26T02:38:40.840Z,927.79
2018-12-26T02:38:53.830Z,927.79
2018-12-26T02:39:06.765Z,927.8
2018-12-26T02:39:19.791Z,927.77
2018-12-26T02:39:32.779Z,927.78
2018-12-26T02:39:45.765Z,927.8
2018-12-26T02:39:58.760Z,927.78
2018-12-26T02:40:11.746Z,927.81
2018-12-26T02:40:24.755Z,927.79
2018-12-26T02:40:38.397Z,927.81
2018-12-26T02:40:51.506Z,927.8
2018-12-26T02:41:04.541Z,927.78
2018-12-26T02:41:17.539Z,927.76
2018-12-26T02:41:30.593Z,927.75
2018-12-26T02:41:43.555Z,927.79
2018-12-26T02:41:56.568Z,927.76
2018-12-26T02:42:09.632Z,927.79
2018-12-26T02:42:22.613Z,927.78
2018-12-26T02:42:35.644Z,927.83
2018-12-26T02:42:48.154Z,927.78
2018-12-26T02:43:01.110Z,927.8
2018-12-26T02:43:14.149Z,927.79
2018-12-26T02:43:27.371Z,927.79
2018-12-26T02:43:40.391Z,927.81
2018-12-26T02:43:53.405Z,927.78